sensor_id;sensor_type;location;lat;lon;timestamp;temperature;humidity
63094;DHT22;49183;51.380;0.098;2023-11-21T00:00:07;9.40;94.20
63094;DHT22;49183;51.380;0.098;2023-11-21T00:02:39;9.40;94.30
63094;DHT22;49183;51.380;0.098;2023-11-21T00:05:09;9.40;94.30
63094;DHT22;49183;51.380;0.098;2023-11-21T00:07:37;9.40;94.30
63094;DHT22;49183;51.380;0.098;2023-11-21T00:10:06;9.40;94.30
63094;DHT22;49183;51.380;0.098;2023-11-21T00:12:36;9.40;94.30
63094;DHT22;49183;51.380;0.098;2023-11-21T00:15:04;9.50;94.30
63094;DHT22;49183;51.380;0.098;2023-11-21T00:17:38;9.50;94.30
63094;DHT22;49183;51.380;0.098;2023-11-21T00:20:07;9.40;94.20
63094;DHT22;49183;51.380;0.098;2023-11-21T00:22:35;9.40;94.20
63094;DHT22;49183;51.380;0.098;2023-11-21T00:25:03;9.40;94.20
63094;DHT22;49183;51.380;0.098;2023-11-21T00:27:31;9.40;94.20
63094;DHT22;49183;51.380;0.098;2023-11-21T00:29:59;9.40;94.10
63094;DHT22;49183;51.380;0.098;2023-11-21T00:32:27;9.40;94.10
63094;DHT22;49183;51.380;0.098;2023-11-21T00:34:54;9.40;94.20
63094;DHT22;49183;51.380;0.098;2023-11-21T00:37:22;9.30;94.20
63094;DHT22;49183;51.380;0.098;2023-11-21T00:39:51;9.40;94.20
63094;DHT22;49183;51.380;0.098;2023-11-21T00:42:19;9.30;94.20
63094;DHT22;49183;51.380;0.098;2023-11-21T00:44:46;9.30;94.20
63094;DHT22;49183;51.380;0.098;2023-11-21T00:47:15;9.30;94.10
63094;DHT22;49183;51.380;0.098;2023-11-21T00:49:43;9.30;94.10
63094;DHT22;49183;51.380;0.098;2023-11-21T00:52:11;9.30;94.10
63094;DHT22;49183;51.380;0.098;2023-11-21T00:54:39;9.30;94.10
63094;DHT22;49183;51.380;0.098;2023-11-21T00:57:07;9.30;94.10
63094;DHT22;49183;51.380;0.098;2023-11-21T00:59:35;9.30;94.10
63094;DHT22;49183;51.380;0.098;2023-11-21T01:02:03;9.30;94.00
63094;DHT22;49183;51.380;0.098;2023-11-21T01:04:32;9.30;94.00
63094;DHT22;49183;51.380;0.098;2023-11-21T01:07:00;9.30;94.00
63094;DHT22;49183;51.380;0.098;2023-11-21T01:09:28;9.20;94.00
63094;DHT22;49183;51.380;0.098;2023-11-21T01:11:56;9.20;93.90
63094;DHT22;49183;51.380;0.098;2023-11-21T01:14:24;9.20;93.80
63094;DHT22;49183;51.380;0.098;2023-11-21T01:16:54;9.20;93.80
63094;DHT22;49183;51.380;0.098;2023-11-21T01:19:22;9.10;93.70
63094;DHT22;49183;51.380;0.098;2023-11-21T01:21:50;9.10;93.60
63094;DHT22;49183;51.380;0.098;2023-11-21T01:24:19;9.10;93.40
63094;DHT22;49183;51.380;0.098;2023-11-21T01:26:47;9.10;93.30
63094;DHT22;49183;51.380;0.098;2023-11-21T01:29:15;9.10;93.20
63094;DHT22;49183;51.380;0.098;2023-11-21T01:31:42;9.10;93.10
63094;DHT22;49183;51.380;0.098;2023-11-21T01:34:11;9.10;93.00
63094;DHT22;49183;51.380;0.098;2023-11-21T01:36:39;9.00;92.80
63094;DHT22;49183;51.380;0.098;2023-11-21T01:39:06;9.00;92.30
63094;DHT22;49183;51.380;0.098;2023-11-21T01:41:36;8.90;92.10
63094;DHT22;49183;51.380;0.098;2023-11-21T01:44:04;9.00;91.90
63094;DHT22;49183;51.380;0.098;2023-11-21T01:46:35;8.90;91.80
63094;DHT22;49183;51.380;0.098;2023-11-21T01:49:03;8.90;91.70
63094;DHT22;49183;51.380;0.098;2023-11-21T01:51:31;8.90;91.30
63094;DHT22;49183;51.380;0.098;2023-11-21T01:54:00;8.90;90.90
63094;DHT22;49183;51.380;0.098;2023-11-21T01:56:28;8.80;90.10
63094;DHT22;49183;51.380;0.098;2023-11-21T01:58:58;8.90;89.70
63094;DHT22;49183;51.380;0.098;2023-11-21T02:01:26;8.90;89.30
63094;DHT22;49183;51.380;0.098;2023-11-21T02:03:53;8.90;89.20
63094;DHT22;49183;51.380;0.098;2023-11-21T02:06:21;8.80;89.20
63094;DHT22;49183;51.380;0.098;2023-11-21T02:08:49;8.80;89.10
63094;DHT22;49183;51.380;0.098;2023-11-21T02:11:17;8.80;89.10
63094;DHT22;49183;51.380;0.098;2023-11-21T02:13:46;8.80;89.30
63094;DHT22;49183;51.380;0.098;2023-11-21T02:16:17;8.80;89.00
63094;DHT22;49183;51.380;0.098;2023-11-21T02:18:45;8.80;89.00
63094;DHT22;49183;51.380;0.098;2023-11-21T02:21:14;8.80;88.70
63094;DHT22;49183;51.380;0.098;2023-11-21T02:23:43;8.80;88.80
63094;DHT22;49183;51.380;0.098;2023-11-21T02:26:12;8.80;89.00
63094;DHT22;49183;51.380;0.098;2023-11-21T02:28:41;8.80;89.10
63094;DHT22;49183;51.380;0.098;2023-11-21T02:31:10;8.70;89.30
63094;DHT22;49183;51.380;0.098;2023-11-21T02:33:39;8.70;89.50
63094;DHT22;49183;51.380;0.098;2023-11-21T02:36:07;8.70;88.60
63094;DHT22;49183;51.380;0.098;2023-11-21T02:38:35;8.70;88.50
63094;DHT22;49183;51.380;0.098;2023-11-21T02:41:02;8.70;88.40
63094;DHT22;49183;51.380;0.098;2023-11-21T02:43:32;8.70;88.40
63094;DHT22;49183;51.380;0.098;2023-11-21T02:46:00;8.70;88.50
63094;DHT22;49183;51.380;0.098;2023-11-21T02:48:28;8.70;88.50
63094;DHT22;49183;51.380;0.098;2023-11-21T02:50:55;8.70;88.20
63094;DHT22;49183;51.380;0.098;2023-11-21T02:53:23;8.60;88.10
63094;DHT22;49183;51.380;0.098;2023-11-21T02:55:52;8.70;88.20
63094;DHT22;49183;51.380;0.098;2023-11-21T02:58:19;8.60;88.20
63094;DHT22;49183;51.380;0.098;2023-11-21T03:00:47;8.60;88.40
63094;DHT22;49183;51.380;0.098;2023-11-21T03:03:15;8.60;88.60
63094;DHT22;49183;51.380;0.098;2023-11-21T03:05:42;8.50;88.70
63094;DHT22;49183;51.380;0.098;2023-11-21T03:08:10;8.50;88.80
63094;DHT22;49183;51.380;0.098;2023-11-21T03:10:38;8.50;89.00
63094;DHT22;49183;51.380;0.098;2023-11-21T03:13:06;8.50;89.10
63094;DHT22;49183;51.380;0.098;2023-11-21T03:15:33;8.50;89.20
63094;DHT22;49183;51.380;0.098;2023-11-21T03:18:02;8.50;89.30
63094;DHT22;49183;51.380;0.098;2023-11-21T03:20:30;8.50;89.40
63094;DHT22;49183;51.380;0.098;2023-11-21T03:23:00;8.40;89.40
63094;DHT22;49183;51.380;0.098;2023-11-21T03:25:28;8.40;89.50
63094;DHT22;49183;51.380;0.098;2023-11-21T03:27:56;8.50;89.60
63094;DHT22;49183;51.380;0.098;2023-11-21T03:30:23;8.40;89.70
63094;DHT22;49183;51.380;0.098;2023-11-21T03:32:51;8.40;89.70
63094;DHT22;49183;51.380;0.098;2023-11-21T03:35:20;8.40;89.70
63094;DHT22;49183;51.380;0.098;2023-11-21T03:37:48;8.40;89.70
63094;DHT22;49183;51.380;0.098;2023-11-21T03:40:16;8.40;89.80
63094;DHT22;49183;51.380;0.098;2023-11-21T03:42:44;8.40;89.80
63094;DHT22;49183;51.380;0.098;2023-11-21T03:45:11;8.40;89.70
63094;DHT22;49183;51.380;0.098;2023-11-21T03:47:41;8.40;89.60
63094;DHT22;49183;51.380;0.098;2023-11-21T03:50:09;8.40;89.50
63094;DHT22;49183;51.380;0.098;2023-11-21T03:52:37;8.40;89.40
63094;DHT22;49183;51.380;0.098;2023-11-21T03:55:06;8.40;89.40
63094;DHT22;49183;51.380;0.098;2023-11-21T03:57:34;8.40;89.30
63094;DHT22;49183;51.380;0.098;2023-11-21T04:00:04;8.40;89.30
63094;DHT22;49183;51.380;0.098;2023-11-21T04:02:38;8.40;89.30
63094;DHT22;49183;51.380;0.098;2023-11-21T04:05:07;8.40;89.20
63094;DHT22;49183;51.380;0.098;2023-11-21T04:07:35;8.40;89.20
63094;DHT22;49183;51.380;0.098;2023-11-21T04:10:05;8.40;89.20
63094;DHT22;49183;51.380;0.098;2023-11-21T04:12:36;8.30;89.20
63094;DHT22;49183;51.380;0.098;2023-11-21T04:15:03;8.30;89.10
63094;DHT22;49183;51.380;0.098;2023-11-21T04:17:31;8.30;89.10
63094;DHT22;49183;51.380;0.098;2023-11-21T04:19:59;8.30;89.10
63094;DHT22;49183;51.380;0.098;2023-11-21T04:22:26;8.30;89.00
63094;DHT22;49183;51.380;0.098;2023-11-21T04:24:54;8.30;89.00
63094;DHT22;49183;51.380;0.098;2023-11-21T04:27:23;8.30;88.80
63094;DHT22;49183;51.380;0.098;2023-11-21T04:29:50;8.30;88.70
63094;DHT22;49183;51.380;0.098;2023-11-21T04:32:18;8.30;88.70
63094;DHT22;49183;51.380;0.098;2023-11-21T04:34:45;8.30;88.60
63094;DHT22;49183;51.380;0.098;2023-11-21T04:37:13;8.30;88.50
63094;DHT22;49183;51.380;0.098;2023-11-21T04:39:40;8.20;88.40
63094;DHT22;49183;51.380;0.098;2023-11-21T04:42:08;8.20;88.30
63094;DHT22;49183;51.380;0.098;2023-11-21T04:44:35;8.20;88.30
63094;DHT22;49183;51.380;0.098;2023-11-21T04:47:03;8.20;88.20
63094;DHT22;49183;51.380;0.098;2023-11-21T04:49:32;8.20;88.20
63094;DHT22;49183;51.380;0.098;2023-11-21T04:51:59;8.20;88.00
63094;DHT22;49183;51.380;0.098;2023-11-21T04:54:30;8.20;87.90
63094;DHT22;49183;51.380;0.098;2023-11-21T04:56:57;8.20;87.90
63094;DHT22;49183;51.380;0.098;2023-11-21T04:59:26;8.20;88.00
63094;DHT22;49183;51.380;0.098;2023-11-21T05:01:57;8.20;88.10
63094;DHT22;49183;51.380;0.098;2023-11-21T05:04:25;8.20;88.10
63094;DHT22;49183;51.380;0.098;2023-11-21T05:06:53;8.10;88.10
63094;DHT22;49183;51.380;0.098;2023-11-21T05:09:21;8.10;88.10
63094;DHT22;49183;51.380;0.098;2023-11-21T05:11:49;8.10;88.00
63094;DHT22;49183;51.380;0.098;2023-11-21T05:14:17;8.10;87.90
63094;DHT22;49183;51.380;0.098;2023-11-21T05:16:46;8.10;87.80
63094;DHT22;49183;51.380;0.098;2023-11-21T05:19:14;8.00;87.90
63094;DHT22;49183;51.380;0.098;2023-11-21T05:21:41;7.90;88.00
63094;DHT22;49183;51.380;0.098;2023-11-21T05:24:09;7.80;88.30
63094;DHT22;49183;51.380;0.098;2023-11-21T05:26:37;7.80;88.50
63094;DHT22;49183;51.380;0.098;2023-11-21T05:29:06;7.70;88.70
63094;DHT22;49183;51.380;0.098;2023-11-21T05:31:34;7.70;88.90
63094;DHT22;49183;51.380;0.098;2023-11-21T05:34:03;7.70;89.00
63094;DHT22;49183;51.380;0.098;2023-11-21T05:36:32;7.60;89.00
63094;DHT22;49183;51.380;0.098;2023-11-21T05:39:01;7.60;89.10
63094;DHT22;49183;51.380;0.098;2023-11-21T05:41:30;7.50;89.30
63094;DHT22;49183;51.380;0.098;2023-11-21T05:43:58;7.50;89.60
63094;DHT22;49183;51.380;0.098;2023-11-21T05:46:25;7.40;89.90
63094;DHT22;49183;51.380;0.098;2023-11-21T05:48:53;7.30;90.10
63094;DHT22;49183;51.380;0.098;2023-11-21T05:51:20;7.30;90.40
63094;DHT22;49183;51.380;0.098;2023-11-21T05:53:48;7.30;90.70
63094;DHT22;49183;51.380;0.098;2023-11-21T05:56:15;7.20;90.90
63094;DHT22;49183;51.380;0.098;2023-11-21T05:58:44;7.20;91.20
63094;DHT22;49183;51.380;0.098;2023-11-21T06:01:12;7.10;91.40
63094;DHT22;49183;51.380;0.098;2023-11-21T06:03:40;7.10;91.60
63094;DHT22;49183;51.380;0.098;2023-11-21T06:06:08;7.10;91.80
63094;DHT22;49183;51.380;0.098;2023-11-21T06:08:35;7.10;92.00
63094;DHT22;49183;51.380;0.098;2023-11-21T06:11:03;7.10;92.10
63094;DHT22;49183;51.380;0.098;2023-11-21T06:13:31;7.10;92.20
63094;DHT22;49183;51.380;0.098;2023-11-21T06:15:58;7.10;92.30
63094;DHT22;49183;51.380;0.098;2023-11-21T06:18:26;7.10;92.40
63094;DHT22;49183;51.380;0.098;2023-11-21T06:20:53;7.10;92.40
63094;DHT22;49183;51.380;0.098;2023-11-21T06:23:21;7.10;92.50
63094;DHT22;49183;51.380;0.098;2023-11-21T06:25:48;7.10;92.60
63094;DHT22;49183;51.380;0.098;2023-11-21T06:28:16;7.10;92.60
63094;DHT22;49183;51.380;0.098;2023-11-21T06:30:45;7.10;92.70
63094;DHT22;49183;51.380;0.098;2023-11-21T06:33:13;7.10;92.70
63094;DHT22;49183;51.380;0.098;2023-11-21T06:35:40;7.10;92.80
63094;DHT22;49183;51.380;0.098;2023-11-21T06:38:08;7.10;92.80
63094;DHT22;49183;51.380;0.098;2023-11-21T06:40:36;7.10;92.80
63094;DHT22;49183;51.380;0.098;2023-11-21T06:43:04;7.10;92.90
63094;DHT22;49183;51.380;0.098;2023-11-21T06:45:34;7.10;92.90
63094;DHT22;49183;51.380;0.098;2023-11-21T06:48:01;7.10;93.00
63094;DHT22;49183;51.380;0.098;2023-11-21T06:50:30;7.10;93.00
63094;DHT22;49183;51.380;0.098;2023-11-21T06:52:58;7.10;93.00
63094;DHT22;49183;51.380;0.098;2023-11-21T06:55:26;7.10;93.00
63094;DHT22;49183;51.380;0.098;2023-11-21T06:57:54;7.10;93.10
63094;DHT22;49183;51.380;0.098;2023-11-21T07:00:21;7.10;93.10
63094;DHT22;49183;51.380;0.098;2023-11-21T07:02:49;7.10;93.20
63094;DHT22;49183;51.380;0.098;2023-11-21T07:05:18;7.10;93.20
63094;DHT22;49183;51.380;0.098;2023-11-21T07:07:49;7.10;93.30
63094;DHT22;49183;51.380;0.098;2023-11-21T07:10:17;7.10;93.30
63094;DHT22;49183;51.380;0.098;2023-11-21T07:12:45;7.10;93.40
63094;DHT22;49183;51.380;0.098;2023-11-21T07:15:13;7.10;93.40
63094;DHT22;49183;51.380;0.098;2023-11-21T07:17:40;7.10;93.40
63094;DHT22;49183;51.380;0.098;2023-11-21T07:20:09;7.10;93.50
63094;DHT22;49183;51.380;0.098;2023-11-21T07:22:36;7.10;93.50
63094;DHT22;49183;51.380;0.098;2023-11-21T07:25:04;7.10;93.50
63094;DHT22;49183;51.380;0.098;2023-11-21T07:27:32;7.10;93.50
63094;DHT22;49183;51.380;0.098;2023-11-21T07:30:03;7.10;93.50
63094;DHT22;49183;51.380;0.098;2023-11-21T07:32:32;7.20;93.50
63094;DHT22;49183;51.380;0.098;2023-11-21T07:35:00;7.20;93.50
63094;DHT22;49183;51.380;0.098;2023-11-21T07:37:28;7.20;93.50
63094;DHT22;49183;51.380;0.098;2023-11-21T07:39:56;7.20;93.50
63094;DHT22;49183;51.380;0.098;2023-11-21T07:42:24;7.20;93.50
63094;DHT22;49183;51.380;0.098;2023-11-21T07:44:53;7.20;93.50
63094;DHT22;49183;51.380;0.098;2023-11-21T07:47:21;7.30;93.60
63094;DHT22;49183;51.380;0.098;2023-11-21T07:49:49;7.30;93.50
63094;DHT22;49183;51.380;0.098;2023-11-21T07:52:17;7.30;93.60
63094;DHT22;49183;51.380;0.098;2023-11-21T07:54:46;7.30;93.50
63094;DHT22;49183;51.380;0.098;2023-11-21T07:57:14;7.30;93.50
63094;DHT22;49183;51.380;0.098;2023-11-21T07:59:41;7.40;93.50
63094;DHT22;49183;51.380;0.098;2023-11-21T08:02:09;7.40;93.50
63094;DHT22;49183;51.380;0.098;2023-11-21T08:04:37;7.50;93.50
63094;DHT22;49183;51.380;0.098;2023-11-21T08:07:05;7.50;93.40
63094;DHT22;49183;51.380;0.098;2023-11-21T08:09:33;7.50;93.30
63094;DHT22;49183;51.380;0.098;2023-11-21T08:12:02;7.60;93.20
63094;DHT22;49183;51.380;0.098;2023-11-21T08:14:30;7.60;93.10
63094;DHT22;49183;51.380;0.098;2023-11-21T08:16:58;7.60;93.10
63094;DHT22;49183;51.380;0.098;2023-11-21T08:19:26;7.60;93.00
63094;DHT22;49183;51.380;0.098;2023-11-21T08:21:54;7.70;93.00
63094;DHT22;49183;51.380;0.098;2023-11-21T08:24:22;7.80;92.90
63094;DHT22;49183;51.380;0.098;2023-11-21T08:26:50;7.80;92.90
63094;DHT22;49183;51.380;0.098;2023-11-21T08:29:19;7.80;92.80
63094;DHT22;49183;51.380;0.098;2023-11-21T08:31:47;7.80;92.80
63094;DHT22;49183;51.380;0.098;2023-11-21T08:34:15;7.80;92.70
63094;DHT22;49183;51.380;0.098;2023-11-21T08:36:43;7.90;92.40
63094;DHT22;49183;51.380;0.098;2023-11-21T08:39:11;7.90;92.30
63094;DHT22;49183;51.380;0.098;2023-11-21T08:41:40;7.90;92.10
63094;DHT22;49183;51.380;0.098;2023-11-21T08:44:08;8.00;92.10
63094;DHT22;49183;51.380;0.098;2023-11-21T08:46:37;8.00;92.00
63094;DHT22;49183;51.380;0.098;2023-11-21T08:49:06;8.10;91.90
63094;DHT22;49183;51.380;0.098;2023-11-21T08:51:34;8.10;91.80
63094;DHT22;49183;51.380;0.098;2023-11-21T08:54:01;8.10;91.60
63094;DHT22;49183;51.380;0.098;2023-11-21T08:56:32;8.10;91.50
63094;DHT22;49183;51.380;0.098;2023-11-21T08:58:59;8.10;91.40
63094;DHT22;49183;51.380;0.098;2023-11-21T09:01:29;8.10;91.30
63094;DHT22;49183;51.380;0.098;2023-11-21T09:04:00;8.10;91.10
63094;DHT22;49183;51.380;0.098;2023-11-21T09:06:28;8.20;90.90
63094;DHT22;49183;51.380;0.098;2023-11-21T09:08:57;8.20;90.50
63094;DHT22;49183;51.380;0.098;2023-11-21T09:11:25;8.20;90.40
63094;DHT22;49183;51.380;0.098;2023-11-21T09:13:59;8.20;90.40
63094;DHT22;49183;51.380;0.098;2023-11-21T09:16:26;8.20;90.40
63094;DHT22;49183;51.380;0.098;2023-11-21T09:18:54;8.20;90.40
63094;DHT22;49183;51.380;0.098;2023-11-21T09:21:22;8.30;90.40
63094;DHT22;49183;51.380;0.098;2023-11-21T09:23:51;8.20;90.40
63094;DHT22;49183;51.380;0.098;2023-11-21T09:26:18;8.20;90.40
63094;DHT22;49183;51.380;0.098;2023-11-21T09:28:49;8.20;90.50
63094;DHT22;49183;51.380;0.098;2023-11-21T09:31:17;8.20;90.50
63094;DHT22;49183;51.380;0.098;2023-11-21T09:33:46;8.10;90.60
63094;DHT22;49183;51.380;0.098;2023-11-21T09:36:15;8.10;90.70
63094;DHT22;49183;51.380;0.098;2023-11-21T09:38:46;8.10;90.70
63094;DHT22;49183;51.380;0.098;2023-11-21T09:41:21;8.10;90.70
63094;DHT22;49183;51.380;0.098;2023-11-21T09:43:51;8.20;90.80
63094;DHT22;49183;51.380;0.098;2023-11-21T09:46:22;8.10;90.80
63094;DHT22;49183;51.380;0.098;2023-11-21T09:48:51;8.20;90.80
63094;DHT22;49183;51.380;0.098;2023-11-21T09:51:21;8.20;90.70
63094;DHT22;49183;51.380;0.098;2023-11-21T09:53:52;8.20;90.60
63094;DHT22;49183;51.380;0.098;2023-11-21T09:56:20;8.20;90.20
63094;DHT22;49183;51.380;0.098;2023-11-21T09:58:52;8.30;89.80
63094;DHT22;49183;51.380;0.098;2023-11-21T10:01:20;8.30;89.70
63094;DHT22;49183;51.380;0.098;2023-11-21T10:03:48;8.30;89.60
63094;DHT22;49183;51.380;0.098;2023-11-21T10:06:16;8.40;89.40
63094;DHT22;49183;51.380;0.098;2023-11-21T10:08:46;8.40;89.20
63094;DHT22;49183;51.380;0.098;2023-11-21T10:11:25;8.40;89.10
63094;DHT22;49183;51.380;0.098;2023-11-21T10:13:53;8.50;88.60
63094;DHT22;49183;51.380;0.098;2023-11-21T10:16:21;8.60;88.20
63094;DHT22;49183;51.380;0.098;2023-11-21T10:18:51;8.60;88.10
63094;DHT22;49183;51.380;0.098;2023-11-21T10:21:38;8.60;88.00
63094;DHT22;49183;51.380;0.098;2023-11-21T10:24:06;8.60;88.00
63094;DHT22;49183;51.380;0.098;2023-11-21T10:26:35;8.70;88.00
63094;DHT22;49183;51.380;0.098;2023-11-21T10:29:19;8.70;87.60
63094;DHT22;49183;51.380;0.098;2023-11-21T10:31:50;8.70;87.20
63094;DHT22;49183;51.380;0.098;2023-11-21T10:34:19;8.80;86.90
63094;DHT22;49183;51.380;0.098;2023-11-21T10:36:47;8.80;86.70
63094;DHT22;49183;51.380;0.098;2023-11-21T10:39:18;8.80;86.50
63094;DHT22;49183;51.380;0.098;2023-11-21T10:41:47;8.80;86.30
63094;DHT22;49183;51.380;0.098;2023-11-21T10:44:16;8.80;85.90
63094;DHT22;49183;51.380;0.098;2023-11-21T10:46:52;8.80;85.50
63094;DHT22;49183;51.380;0.098;2023-11-21T10:49:27;8.80;85.40
63094;DHT22;49183;51.380;0.098;2023-11-21T10:51:55;8.80;85.60
63094;DHT22;49183;51.380;0.098;2023-11-21T10:54:24;8.80;85.60
63094;DHT22;49183;51.380;0.098;2023-11-21T10:56:55;8.80;85.60
63094;DHT22;49183;51.380;0.098;2023-11-21T10:59:25;8.80;85.60
63094;DHT22;49183;51.380;0.098;2023-11-21T11:01:53;8.80;85.70
63094;DHT22;49183;51.380;0.098;2023-11-21T11:04:22;8.90;85.50
63094;DHT22;49183;51.380;0.098;2023-11-21T11:07:02;8.90;85.40
63094;DHT22;49183;51.380;0.098;2023-11-21T11:09:32;8.80;85.00
63094;DHT22;49183;51.380;0.098;2023-11-21T11:12:03;8.70;84.80
63094;DHT22;49183;51.380;0.098;2023-11-21T11:14:34;8.60;85.00
63094;DHT22;49183;51.380;0.098;2023-11-21T11:17:02;8.60;85.20
63094;DHT22;49183;51.380;0.098;2023-11-21T11:19:33;8.60;85.30
63094;DHT22;49183;51.380;0.098;2023-11-21T11:32:43;8.80;85.20
63094;DHT22;49183;51.380;0.098;2023-11-21T11:35:34;8.80;85.30
63094;DHT22;49183;51.380;0.098;2023-11-21T11:38:04;8.90;84.70
63094;DHT22;49183;51.380;0.098;2023-11-21T11:40:41;8.90;84.60
63094;DHT22;49183;51.380;0.098;2023-11-21T11:43:16;8.90;84.40
63094;DHT22;49183;51.380;0.098;2023-11-21T11:45:52;8.90;83.80
63094;DHT22;49183;51.380;0.098;2023-11-21T11:48:23;8.90;83.80
63094;DHT22;49183;51.380;0.098;2023-11-21T11:51:05;8.90;83.80
63094;DHT22;49183;51.380;0.098;2023-11-21T11:53:40;8.80;84.00
63094;DHT22;49183;51.380;0.098;2023-11-21T11:56:22;8.80;84.10
63094;DHT22;49183;51.380;0.098;2023-11-21T11:58:55;8.80;84.00
63094;DHT22;49183;51.380;0.098;2023-11-21T12:01:26;8.80;84.10
63094;DHT22;49183;51.380;0.098;2023-11-21T12:06:43;8.90;83.40
63094;DHT22;49183;51.380;0.098;2023-11-21T12:09:19;8.90;82.60
63094;DHT22;49183;51.380;0.098;2023-11-21T12:11:51;9.00;82.50
63094;DHT22;49183;51.380;0.098;2023-11-21T12:14:19;9.10;82.50
63094;DHT22;49183;51.380;0.098;2023-11-21T12:16:48;9.20;81.30
63094;DHT22;49183;51.380;0.098;2023-11-21T12:19:19;9.30;80.80
63094;DHT22;49183;51.380;0.098;2023-11-21T12:21:50;9.40;80.70
63094;DHT22;49183;51.380;0.098;2023-11-21T12:24:21;9.50;79.60
63094;DHT22;49183;51.380;0.098;2023-11-21T12:26:51;9.50;79.40
63094;DHT22;49183;51.380;0.098;2023-11-21T12:29:19;9.50;78.00
63094;DHT22;49183;51.380;0.098;2023-11-21T12:31:48;9.40;78.40
63094;DHT22;49183;51.380;0.098;2023-11-21T12:34:18;9.30;78.90
63094;DHT22;49183;51.380;0.098;2023-11-21T12:36:48;9.20;79.20
63094;DHT22;49183;51.380;0.098;2023-11-21T12:39:19;9.10;79.60
63094;DHT22;49183;51.380;0.098;2023-11-21T12:41:53;9.10;80.00
63094;DHT22;49183;51.380;0.098;2023-11-21T12:44:24;9.10;79.70
63094;DHT22;49183;51.380;0.098;2023-11-21T12:46:54;9.20;78.80
63094;DHT22;49183;51.380;0.098;2023-11-21T12:49:26;9.30;77.90
63094;DHT22;49183;51.380;0.098;2023-11-21T12:51:57;9.30;77.20
63094;DHT22;49183;51.380;0.098;2023-11-21T12:54:28;9.40;77.30
63094;DHT22;49183;51.380;0.098;2023-11-21T12:56:59;9.50;77.10
63094;DHT22;49183;51.380;0.098;2023-11-21T12:59:31;9.50;76.50
63094;DHT22;49183;51.380;0.098;2023-11-21T13:02:01;9.60;76.20
63094;DHT22;49183;51.380;0.098;2023-11-21T13:04:35;9.50;76.20
63094;DHT22;49183;51.380;0.098;2023-11-21T13:07:04;9.60;76.10
63094;DHT22;49183;51.380;0.098;2023-11-21T13:09:44;9.60;75.40
63094;DHT22;49183;51.380;0.098;2023-11-21T13:12:15;9.60;75.10
63094;DHT22;49183;51.380;0.098;2023-11-21T13:14:48;9.60;75.30
63094;DHT22;49183;51.380;0.098;2023-11-21T13:17:20;9.70;75.10
63094;DHT22;49183;51.380;0.098;2023-11-21T13:19:54;9.80;74.20
63094;DHT22;49183;51.380;0.098;2023-11-21T13:22:27;9.90;74.10
63094;DHT22;49183;51.380;0.098;2023-11-21T13:24:56;9.90;74.10
63094;DHT22;49183;51.380;0.098;2023-11-21T13:27:27;10.00;74.50
63094;DHT22;49183;51.380;0.098;2023-11-21T13:29:59;10.10;73.10
63094;DHT22;49183;51.380;0.098;2023-11-21T13:32:28;10.10;73.30
63094;DHT22;49183;51.380;0.098;2023-11-21T13:34:57;10.10;73.20
63094;DHT22;49183;51.380;0.098;2023-11-21T13:37:26;10.10;73.50
63094;DHT22;49183;51.380;0.098;2023-11-21T13:39:56;10.10;73.50
63094;DHT22;49183;51.380;0.098;2023-11-21T13:42:24;10.10;73.70
63094;DHT22;49183;51.380;0.098;2023-11-21T13:44:57;10.10;74.00
63094;DHT22;49183;51.380;0.098;2023-11-21T13:47:25;10.10;73.60
63094;DHT22;49183;51.380;0.098;2023-11-21T13:49:57;10.10;73.60
63094;DHT22;49183;51.380;0.098;2023-11-21T13:52:25;10.10;73.70
63094;DHT22;49183;51.380;0.098;2023-11-21T13:54:55;10.00;73.90
63094;DHT22;49183;51.380;0.098;2023-11-21T13:57:24;10.00;74.10
63094;DHT22;49183;51.380;0.098;2023-11-21T13:59:52;9.90;74.40
63094;DHT22;49183;51.380;0.098;2023-11-21T14:02:19;9.90;74.60
63094;DHT22;49183;51.380;0.098;2023-11-21T14:04:55;9.80;75.30
63094;DHT22;49183;51.380;0.098;2023-11-21T14:07:27;9.80;76.10
63094;DHT22;49183;51.380;0.098;2023-11-21T14:10:04;9.70;76.70
63094;DHT22;49183;51.380;0.098;2023-11-21T14:12:35;9.60;77.20
63094;DHT22;49183;51.380;0.098;2023-11-21T14:15:06;9.60;77.70
63094;DHT22;49183;51.380;0.098;2023-11-21T14:17:38;9.50;77.90
63094;DHT22;49183;51.380;0.098;2023-11-21T14:20:09;9.40;78.30
63094;DHT22;49183;51.380;0.098;2023-11-21T14:22:44;9.40;78.80
63094;DHT22;49183;51.380;0.098;2023-11-21T14:25:12;9.30;79.00
63094;DHT22;49183;51.380;0.098;2023-11-21T14:27:42;9.20;79.40
63094;DHT22;49183;51.380;0.098;2023-11-21T14:30:09;9.10;79.70
63094;DHT22;49183;51.380;0.098;2023-11-21T14:32:40;9.10;80.10
63094;DHT22;49183;51.380;0.098;2023-11-21T14:35:08;9.00;80.40
63094;DHT22;49183;51.380;0.098;2023-11-21T14:37:36;8.90;80.60
63094;DHT22;49183;51.380;0.098;2023-11-21T14:40:04;8.80;80.80
63094;DHT22;49183;51.380;0.098;2023-11-21T14:42:38;8.80;81.10
63094;DHT22;49183;51.380;0.098;2023-11-21T14:45:08;8.70;81.20
63094;DHT22;49183;51.380;0.098;2023-11-21T14:47:39;8.60;81.50
63094;DHT22;49183;51.380;0.098;2023-11-21T14:50:14;8.60;81.60
63094;DHT22;49183;51.380;0.098;2023-11-21T14:53:04;8.60;81.80
63094;DHT22;49183;51.380;0.098;2023-11-21T14:55:33;8.50;81.90
63094;DHT22;49183;51.380;0.098;2023-11-21T14:58:20;8.50;82.00
63094;DHT22;49183;51.380;0.098;2023-11-21T15:00:55;8.50;82.00
63094;DHT22;49183;51.380;0.098;2023-11-21T15:03:26;8.50;82.10
63094;DHT22;49183;51.380;0.098;2023-11-21T15:06:02;8.50;82.10
63094;DHT22;49183;51.380;0.098;2023-11-21T15:08:49;8.50;82.30
63094;DHT22;49183;51.380;0.098;2023-11-21T15:11:25;8.50;82.30
63094;DHT22;49183;51.380;0.098;2023-11-21T15:13:58;8.50;82.40
63094;DHT22;49183;51.380;0.098;2023-11-21T15:16:27;8.60;82.40
63094;DHT22;49183;51.380;0.098;2023-11-21T15:18:54;8.60;82.50
63094;DHT22;49183;51.380;0.098;2023-11-21T15:21:23;8.60;82.60
63094;DHT22;49183;51.380;0.098;2023-11-21T15:23:52;8.60;82.70
63094;DHT22;49183;51.380;0.098;2023-11-21T15:26:19;8.60;82.70
63094;DHT22;49183;51.380;0.098;2023-11-21T15:28:49;8.60;82.70
63094;DHT22;49183;51.380;0.098;2023-11-21T15:31:17;8.50;82.80
63094;DHT22;49183;51.380;0.098;2023-11-21T15:33:50;8.50;82.90
63094;DHT22;49183;51.380;0.098;2023-11-21T15:36:19;8.60;83.00
63094;DHT22;49183;51.380;0.098;2023-11-21T15:38:47;8.50;83.00
63094;DHT22;49183;51.380;0.098;2023-11-21T15:41:15;8.50;83.10
63094;DHT22;49183;51.380;0.098;2023-11-21T15:43:43;8.60;83.10
63094;DHT22;49183;51.380;0.098;2023-11-21T15:46:11;8.60;83.10
63094;DHT22;49183;51.380;0.098;2023-11-21T15:48:39;8.60;83.10
63094;DHT22;49183;51.380;0.098;2023-11-21T15:51:11;8.60;83.10
63094;DHT22;49183;51.380;0.098;2023-11-21T15:53:40;8.60;83.10
63094;DHT22;49183;51.380;0.098;2023-11-21T15:56:08;8.60;83.10
63094;DHT22;49183;51.380;0.098;2023-11-21T15:58:39;8.60;83.00
63094;DHT22;49183;51.380;0.098;2023-11-21T16:01:10;8.60;83.00
63094;DHT22;49183;51.380;0.098;2023-11-21T16:03:40;8.60;83.00
63094;DHT22;49183;51.380;0.098;2023-11-21T16:06:08;8.50;83.00
63094;DHT22;49183;51.380;0.098;2023-11-21T16:08:38;8.50;83.00
63094;DHT22;49183;51.380;0.098;2023-11-21T16:11:06;8.40;83.10